createdAt,value
2019-06-08T00:00:16.800Z,87.26
2019-06-08T00:01:22.842Z,87.23
2019-06-08T00:02:27.650Z,87.36
2019-06-08T00:03:32.474Z,87.31
2019-06-08T00:04:37.103Z,87.42
2019-06-08T00:05:42.191Z,87.53
2019-06-08T00:06:47.235Z,87.52
2019-06-08T00:07:52.358Z,87.62
2019-06-08T00:08:57.260Z,87.65
2019-06-08T00:10:02.105Z,87.99
2019-06-08T00:11:06.767Z,87.96
2019-06-08T00:12:12.892Z,87.79
2019-06-08T00:13:19.729Z,87.73
2019-06-08T00:14:25.570Z,87.84
2019-06-08T00:15:30.507Z,87.91
2019-06-08T00:16:35.527Z,87.98
2019-06-08T00:17:40.134Z,88.05
2019-06-08T00:18:45.404Z,88.22
2019-06-08T00:19:50.815Z,88.21
2019-06-08T00:20:56.057Z,88.31
2019-06-08T00:22:00.743Z,88.42
2019-06-08T00:23:05.698Z,88.45
2019-06-08T00:24:10.395Z,88.38
2019-06-08T00:25:15.880Z,88.31
2019-06-08T00:26:22.154Z,88.30
2019-06-08T00:27:27.217Z,88.22
2019-06-08T00:28:32.027Z,88.17
2019-06-08T00:29:37.201Z,88.41
2019-06-08T00:30:41.813Z,88.52
2019-06-08T00:31:46.799Z,88.62
2019-06-08T00:32:51.518Z,88.55
2019-06-08T00:33:56.317Z,88.62
2019-06-08T00:35:01.115Z,88.79
2019-06-08T00:36:05.946Z,88.93
2019-06-08T00:37:10.557Z,88.87
2019-06-08T00:38:16.821Z,89.13
2019-06-08T00:39:22.918Z,89.14
2019-06-08T00:40:27.865Z,89.31
2019-06-08T00:41:33.029Z,89.38
2019-06-08T00:42:38.115Z,89.17
2019-06-08T00:43:42.717Z,89.24
2019-06-08T00:44:48.017Z,89.35
2019-06-08T00:45:52.614Z,89.28
2019-06-08T00:46:57.444Z,89.47
2019-06-08T00:48:03.215Z,89.49
2019-06-08T00:49:08.105Z,89.53
2019-06-08T00:50:13.142Z,89.62
2019-06-08T00:51:18.993Z,89.57
2019-06-08T00:52:23.630Z,89.47
2019-06-08T00:53:29.629Z,89.57
2019-06-08T00:54:34.743Z,89.66
2019-06-08T00:55:39.773Z,89.64
2019-06-08T00:56:44.513Z,89.65
2019-06-08T00:57:49.609Z,89.69
2019-06-08T00:58:54.283Z,89.68
2019-06-08T00:59:59.319Z,89.81
2019-06-08T01:01:05.150Z,89.50
2019-06-08T01:02:10.341Z,89.53
2019-06-08T01:03:15.325Z,89.48
2019-06-08T01:04:20.652Z,89.39
2019-06-08T01:05:26.101Z,89.40
2019-06-08T01:06:31.475Z,89.40
2019-06-08T01:07:36.906Z,89.25
2019-06-08T01:08:42.335Z,89.34
2019-06-08T01:09:47.030Z,89.25
2019-06-08T01:10:53.107Z,89.20
2019-06-08T01:11:57.986Z,88.95
2019-06-08T01:13:02.993Z,88.54
2019-06-08T01:14:08.054Z,88.51
2019-06-08T01:15:14.946Z,88.88
2019-06-08T01:16:20.889Z,88.50
2019-06-08T01:17:27.455Z,88.45
2019-06-08T01:18:33.367Z,88.39
2019-06-08T01:19:38.270Z,88.18
2019-06-08T01:20:42.900Z,87.94
2019-06-08T01:21:48.055Z,87.71
2019-06-08T01:22:54.106Z,87.71
2019-06-08T01:23:58.931Z,87.78
2019-06-08T01:25:03.958Z,87.85
2019-06-08T01:26:08.937Z,87.55
2019-06-08T01:27:13.951Z,87.21
2019-06-08T01:28:19.949Z,87.36
2019-06-08T01:29:24.655Z,86.88
2019-06-08T01:30:30.450Z,86.89
2019-06-08T01:31:35.293Z,86.81
2019-06-08T01:32:40.554Z,86.94
2019-06-08T01:33:45.166Z,86.87
2019-06-08T01:34:50.617Z,87.10
2019-06-08T01:35:55.418Z,87.08
2019-06-08T01:37:00.257Z,87.12
2019-06-08T01:38:05.579Z,87.14
2019-06-08T01:39:10.404Z,87.39
2019-06-08T01:40:15.917Z,87.08
2019-06-08T01:41:21.315Z,87.00
2019-06-08T01:42:25.996Z,87.01
2019-06-08T01:43:31.790Z,87.21
2019-06-08T01:44:36.719Z,87.47
2019-06-08T01:45:41.755Z,87.40
2019-06-08T01:46:46.358Z,87.09
2019-06-08T01:47:51.186Z,86.99
2019-06-08T01:48:55.800Z,86.99
2019-06-08T01:50:00.895Z,86.99
2019-06-08T01:51:05.659Z,87.28
2019-06-08T01:52:10.549Z,87.48
2019-06-08T01:53:15.170Z,87.41
2019-06-08T01:54:19.989Z,87.20
2019-06-08T01:55:25.134Z,86.94
2019-06-08T01:56:31.231Z,87.03
2019-06-08T01:57:36.220Z,86.68
2019-06-08T01:58:41.044Z,86.65
2019-06-08T01:59:45.656Z,86.85
2019-06-08T02:00:50.502Z,86.92
2019-06-08T02:01:55.110Z,86.73
2019-06-08T02:03:00.010Z,86.86
2019-06-08T02:04:05.346Z,86.84
2019-06-08T02:05:10.513Z,86.81
2019-06-08T02:06:15.141Z,86.76
2019-06-08T02:07:20.416Z,87.03
2019-06-08T02:08:26.542Z,87.07
2019-06-08T02:09:32.710Z,87.04
2019-06-08T02:10:37.586Z,87.02
2019-06-08T02:11:42.749Z,87.72
2019-06-08T02:12:47.497Z,87.29
2019-06-08T02:13:52.327Z,87.26
2019-06-08T02:14:56.939Z,87.06
2019-06-08T02:16:01.866Z,86.84
2019-06-08T02:17:06.618Z,86.71
2019-06-08T02:18:11.515Z,86.75
2019-06-08T02:19:16.126Z,86.80
2019-06-08T02:20:22.561Z,86.77
2019-06-08T02:21:27.194Z,86.73
2019-06-08T02:22:33.056Z,86.83
2019-06-08T02:23:37.711Z,86.48
2019-06-08T02:24:42.538Z,85.96
2019-06-08T02:25:47.474Z,85.95
2019-06-08T02:26:52.304Z,85.89
2019-06-08T02:27:57.554Z,83.72
2019-06-08T02:29:02.480Z,83.03
2019-06-08T02:30:15.951Z,82.70
2019-06-08T02:31:20.794Z,82.59
2019-06-08T02:32:25.398Z,82.51
2019-06-08T02:33:30.398Z,83.35
2019-06-08T02:34:37.900Z,84.21
2019-06-08T02:35:42.202Z,84.74
2019-06-08T02:36:46.821Z,84.56
2019-06-08T02:37:51.633Z,85.18
2019-06-08T02:38:56.240Z,86.03
2019-06-08T02:40:01.394Z,85.21
2019-06-08T02:41:06.754Z,84.53
2019-06-08T02:42:11.642Z,83.94
2019-06-08T02:43:16.306Z,83.77
2019-06-08T02:44:21.117Z,83.23
2019-06-08T02:45:25.789Z,83.65
2019-06-08T02:46:31.011Z,83.14
2019-06-08T02:47:36.697Z,82.09
2019-06-08T02:49:02.240Z,81.80
2019-06-08T02:49:48.155Z,82.18
2019-06-08T02:50:55.547Z,82.32
2019-06-08T02:52:01.343Z,81.89
2019-06-08T02:53:06.479Z,81.72
2019-06-08T02:54:12.499Z,79.73
2019-06-08T02:55:17.724Z,80.12
2019-06-08T02:56:23.717Z,79.98
2019-06-08T02:57:31.007Z,79.29
2019-06-08T02:58:39.057Z,79.50
2019-06-08T02:59:44.100Z,79.53
2019-06-08T03:00:49.730Z,79.02
2019-06-08T03:01:58.478Z,79.29
2019-06-08T03:03:06.687Z,78.97
2019-06-08T03:04:13.030Z,79.16
2019-06-08T03:05:18.040Z,78.88
2019-06-08T03:06:23.342Z,79.08
2019-06-08T03:07:32.278Z,79.13
2019-06-08T03:08:40.954Z,79.24
2019-06-08T03:09:47.504Z,79.49
2019-06-08T03:10:54.286Z,79.70
2019-06-08T03:12:02.424Z,78.87
2019-06-08T03:13:07.344Z,78.52
2019-06-08T03:14:12.748Z,78.74
2019-06-08T03:15:20.989Z,78.80
2019-06-08T03:16:25.863Z,78.92
2019-06-08T03:17:31.108Z,78.75
2019-06-08T03:18:37.810Z,78.84
2019-06-08T03:19:43.998Z,78.37
2019-06-08T03:20:48.632Z,78.52
2019-06-08T03:21:53.463Z,78.30
2019-06-08T03:22:58.532Z,78.61
2019-06-08T03:24:03.360Z,78.98
2019-06-08T03:25:08.085Z,78.95
2019-06-08T03:26:13.090Z,79.11
2019-06-08T03:27:18.023Z,79.06
2019-06-08T03:28:23.001Z,79.16
2019-06-08T03:29:27.945Z,79.04
2019-06-08T03:30:35.311Z,79.41
2019-06-08T03:31:49.735Z,79.14
2019-06-08T03:32:55.041Z,79.45
2019-06-08T03:33:56.161Z,78.98
2019-06-08T03:34:59.799Z,78.87
2019-06-08T03:36:04.532Z,79.03
2019-06-08T03:37:09.825Z,79.52
2019-06-08T03:38:14.952Z,79.71
2019-06-08T03:39:20.129Z,79.41
2019-06-08T03:40:24.978Z,78.70
2019-06-08T03:41:29.787Z,78.53
2019-06-08T03:42:34.520Z,78.63
2019-06-08T03:43:40.697Z,78.89
2019-06-08T03:44:46.262Z,78.61
2019-06-08T03:45:51.486Z,78.56
2019-06-08T03:46:56.108Z,78.72
2019-06-08T03:48:01.060Z,78.82
2019-06-08T03:49:06.023Z,79.17
2019-06-08T03:50:12.483Z,79.02
2019-06-08T03:51:17.155Z,79.12
2019-06-08T03:52:22.163Z,79.41
2019-06-08T03:53:27.135Z,78.98
2019-06-08T03:54:32.235Z,78.94
2019-06-08T03:55:38.017Z,79.51
2019-06-08T03:56:44.177Z,79.36
2019-06-08T03:57:49.023Z,79.84
2019-06-08T03:58:53.844Z,79.92
2019-06-08T03:59:58.636Z,79.81
2019-06-08T04:01:03.947Z,80.15
2019-06-08T04:02:08.630Z,80.32
2019-06-08T04:03:13.613Z,80.59
2019-06-08T04:04:18.416Z,80.73
2019-06-08T04:05:23.296Z,80.70
2019-06-08T04:06:28.206Z,80.72
2019-06-08T04:07:33.260Z,80.82
2019-06-08T04:08:40.196Z,81.06
2019-06-08T04:09:45.911Z,81.25
2019-06-08T04:10:51.851Z,81.05
2019-06-08T04:11:56.772Z,81.95
2019-06-08T04:13:01.581Z,81.04
2019-06-08T04:14:06.843Z,81.37
2019-06-08T04:15:12.167Z,81.64
2019-06-08T04:16:19.640Z,82.35
2019-06-08T04:17:27.162Z,82.07
2019-06-08T04:18:31.960Z,82.54
2019-06-08T04:19:38.105Z,82.87
2019-06-08T04:20:45.804Z,82.83
2019-06-08T04:21:50.599Z,82.90
2019-06-08T04:22:56.705Z,82.91
2019-06-08T04:24:01.312Z,82.60
2019-06-08T04:25:09.309Z,83.17
2019-06-08T04:26:13.979Z,82.79
2019-06-08T04:27:18.818Z,83.55
2019-06-08T04:28:23.666Z,83.53
2019-06-08T04:29:28.613Z,83.15
2019-06-08T04:30:36.035Z,82.47
2019-06-08T04:31:41.883Z,82.94
2019-06-08T04:32:47.606Z,83.05
2019-06-08T04:33:53.364Z,82.72
2019-06-08T04:34:58.852Z,82.75
2019-06-08T04:36:04.049Z,81.30
2019-06-08T04:37:09.048Z,81.04
2019-06-08T04:38:14.522Z,81.19
2019-06-08T04:39:19.663Z,81.39
2019-06-08T04:40:24.549Z,81.91
2019-06-08T04:41:29.504Z,81.73
2019-06-08T04:42:34.955Z,81.64
2019-06-08T04:43:42.633Z,81.40
2019-06-08T04:44:49.330Z,81.30
2019-06-08T04:45:54.427Z,80.42
2019-06-08T04:46:59.685Z,81.15
2019-06-08T04:48:04.379Z,81.15
2019-06-08T04:49:09.503Z,81.80
2019-06-08T04:50:22.586Z,81.79
2019-06-08T04:51:20.853Z,81.37
2019-06-08T04:52:26.077Z,81.37
2019-06-08T04:53:31.002Z,81.61
2019-06-08T04:54:35.891Z,81.92
2019-06-08T04:55:43.170Z,81.51
2019-06-08T04:56:49.115Z,81.83
2019-06-08T04:57:54.288Z,81.65
2019-06-08T04:58:59.344Z,81.43
2019-06-08T05:00:11.954Z,81.66
2019-06-08T05:01:12.054Z,81.48
2019-06-08T05:02:16.866Z,80.56
2019-06-08T05:03:23.480Z,78.81
2019-06-08T05:04:28.299Z,77.89
2019-06-08T05:05:32.905Z,78.08
2019-06-08T05:06:39.049Z,77.70
2019-06-08T05:07:46.026Z,77.38
2019-06-08T05:08:51.442Z,76.94
2019-06-08T05:09:56.042Z,77.09
2019-06-08T05:11:00.862Z,76.79
2019-06-08T05:12:05.537Z,76.16
2019-06-08T05:13:10.363Z,76.39
2019-06-08T05:14:14.978Z,76.58
2019-06-08T05:15:20.019Z,76.04
2019-06-08T05:16:24.749Z,75.68
2019-06-08T05:17:29.567Z,75.05
2019-06-08T05:18:34.359Z,75.00
2019-06-08T05:19:41.083Z,74.79
2019-06-08T05:20:47.946Z,75.26
2019-06-08T05:21:52.780Z,75.42
2019-06-08T05:22:58.374Z,76.17
2019-06-08T05:24:03.226Z,75.55
2019-06-08T05:25:07.889Z,75.53
2019-06-08T05:26:13.670Z,75.49
2019-06-08T05:27:18.854Z,74.96
2019-06-08T05:28:23.765Z,75.11
2019-06-08T05:29:28.641Z,74.36
2019-06-08T05:30:33.576Z,74.06
2019-06-08T05:31:39.367Z,73.76
2019-06-08T05:32:45.533Z,73.95
2019-06-08T05:33:50.257Z,73.66
2019-06-08T05:34:55.136Z,73.42
2019-06-08T05:35:59.735Z,73.69
2019-06-08T05:37:05.073Z,74.01
2019-06-08T05:38:09.693Z,73.67
2019-06-08T05:39:14.546Z,74.54
2019-06-08T05:40:19.379Z,74.48
2019-06-08T05:41:24.472Z,73.64
2019-06-08T05:42:29.258Z,73.41
2019-06-08T05:43:34.098Z,73.35
2019-06-08T05:44:39.591Z,73.31
2019-06-08T05:45:45.701Z,73.06
2019-06-08T05:46:50.710Z,72.63
2019-06-08T05:47:55.526Z,72.53
2019-06-08T05:49:00.150Z,72.63
2019-06-08T05:50:09.652Z,71.99
2019-06-08T05:51:14.483Z,71.90
2019-06-08T05:52:19.338Z,71.73
2019-06-08T05:53:23.942Z,71.62
2019-06-08T05:54:28.757Z,71.55
2019-06-08T05:55:33.802Z,70.14
2019-06-08T05:56:39.793Z,69.39
2019-06-08T05:57:44.464Z,69.00
2019-06-08T05:58:50.376Z,67.97
2019-06-08T05:59:55.067Z,67.34
2019-06-08T06:00:59.885Z,66.58
2019-06-08T06:02:04.561Z,66.35
2019-06-08T06:03:09.440Z,66.24
2019-06-08T06:04:14.058Z,66.45
2019-06-08T06:05:19.444Z,65.93
2019-06-08T06:06:24.831Z,66.60
2019-06-08T06:07:29.632Z,65.38
2019-06-08T06:08:34.527Z,65.43
2019-06-08T06:09:40.988Z,65.42
2019-06-08T06:10:46.917Z,65.39
2019-06-08T06:11:53.031Z,65.09
2019-06-08T06:12:57.749Z,65.46
2019-06-08T06:14:02.852Z,64.50
2019-06-08T06:15:08.078Z,64.05
2019-06-08T06:16:13.258Z,64.07
2019-06-08T06:17:18.071Z,65.20
2019-06-08T06:18:23.020Z,63.41
2019-06-08T06:19:27.715Z,64.06
2019-06-08T06:20:32.924Z,63.57
2019-06-08T06:21:37.644Z,63.71
2019-06-08T06:22:43.974Z,63.63
2019-06-08T06:23:49.327Z,63.99
2019-06-08T06:24:54.209Z,63.48
2019-06-08T06:25:58.848Z,62.83
2019-06-08T06:27:03.845Z,63.05
2019-06-08T06:28:08.444Z,62.81
2019-06-08T06:29:13.720Z,61.94
2019-06-08T06:30:18.590Z,62.94
2019-06-08T06:31:23.391Z,62.38
2019-06-08T06:32:28.273Z,61.27
2019-06-08T06:33:33.203Z,61.66
2019-06-08T06:34:38.033Z,60.80
2019-06-08T06:35:43.791Z,61.63
2019-06-08T06:36:48.483Z,59.28
2019-06-08T06:37:53.571Z,59.42
2019-06-08T06:38:58.327Z,58.79
2019-06-08T06:40:03.594Z,58.00
2019-06-08T06:41:08.324Z,59.60
2019-06-08T06:42:13.145Z,58.32
2019-06-08T06:43:17.741Z,58.58
2019-06-08T06:44:22.643Z,58.99
2019-06-08T06:45:28.451Z,59.22
2019-06-08T06:46:33.454Z,59.16
2019-06-08T06:47:38.330Z,59.64
2019-06-08T06:48:44.027Z,60.00
2019-06-08T06:49:48.634Z,58.01
2019-06-08T06:50:53.535Z,59.29
2019-06-08T06:51:58.137Z,58.64
2019-06-08T06:53:02.946Z,59.02
2019-06-08T06:54:07.719Z,59.54
2019-06-08T06:55:12.827Z,59.15
2019-06-08T06:56:17.421Z,59.13
2019-06-08T06:57:22.238Z,59.16
2019-06-08T06:58:26.860Z,58.43
2019-06-08T06:59:31.778Z,59.48
2019-06-08T07:00:36.522Z,59.01
2019-06-08T07:01:41.456Z,58.65
2019-06-08T07:02:47.644Z,58.11
2019-06-08T07:03:54.241Z,58.39
2019-06-08T07:04:59.257Z,58.60
2019-06-08T07:06:04.768Z,58.72
2019-06-08T07:07:09.369Z,57.95
2019-06-08T07:08:14.508Z,57.92
2019-06-08T07:09:19.430Z,58.32
2019-06-08T07:10:24.265Z,58.02
2019-06-08T07:11:28.865Z,56.66
2019-06-08T07:12:33.711Z,56.83
2019-06-08T07:13:38.348Z,57.47
2019-06-08T07:14:43.261Z,57.41
2019-06-08T07:15:51.432Z,57.33
2019-06-08T07:16:54.564Z,56.68
2019-06-08T07:17:59.739Z,57.15
2019-06-08T07:19:04.979Z,56.30
2019-06-08T07:20:09.841Z,55.88
2019-06-08T07:21:15.008Z,56.83
2019-06-08T07:22:19.678Z,56.27
2019-06-08T07:23:25.291Z,54.48
2019-06-08T07:24:29.894Z,54.27
2019-06-08T07:25:34.737Z,55.08
2019-06-08T07:26:39.336Z,56.46
2019-06-08T07:27:44.440Z,53.49
2019-06-08T07:28:49.425Z,53.58
2019-06-08T07:29:56.026Z,52.17
2019-06-08T07:31:00.623Z,52.78
2019-06-08T07:32:05.448Z,52.01
2019-06-08T07:33:10.044Z,51.48
2019-06-08T07:34:14.863Z,51.10
2019-06-08T07:35:19.540Z,50.88
2019-06-08T07:36:24.487Z,51.00
2019-06-08T07:37:29.238Z,51.28
2019-06-08T07:38:34.157Z,50.36
2019-06-08T07:39:38.758Z,49.44
2019-06-08T07:40:43.603Z,48.49
2019-06-08T07:41:49.072Z,49.81
2019-06-08T07:42:56.560Z,49.62
2019-06-08T07:44:01.377Z,48.54
2019-06-08T07:45:07.687Z,48.90
2019-06-08T07:46:12.722Z,48.56
2019-06-08T07:47:17.563Z,48.70
2019-06-08T07:48:22.159Z,49.82
2019-06-08T07:49:27.036Z,49.18
2019-06-08T07:50:31.604Z,48.95
2019-06-08T07:51:36.559Z,49.60
2019-06-08T07:52:41.160Z,49.23
2019-06-08T07:53:47.062Z,48.90
2019-06-08T07:54:52.824Z,48.96
2019-06-08T07:55:58.251Z,48.42
2019-06-08T07:57:02.857Z,48.34
2019-06-08T07:58:07.718Z,47.98
2019-06-08T07:59:12.385Z,48.63
2019-06-08T08:00:17.844Z,48.38
2019-06-08T08:01:35.328Z,48.32
2019-06-08T08:02:30.715Z,49.02
2019-06-08T08:03:37.020Z,49.89
2019-06-08T08:04:41.844Z,49.71
2019-06-08T08:05:48.088Z,49.05
2019-06-08T08:06:54.433Z,48.37
2019-06-08T08:07:59.131Z,48.38
2019-06-08T08:09:07.047Z,49.27
2019-06-08T08:10:12.179Z,49.97
2019-06-08T08:11:17.136Z,48.97
2019-06-08T08:12:21.813Z,48.85
2019-06-08T08:13:26.637Z,48.72
2019-06-08T08:14:31.583Z,49.58
2019-06-08T08:15:36.440Z,49.87
2019-06-08T08:16:41.040Z,49.78
2019-06-08T08:17:45.935Z,50.01
2019-06-08T08:18:51.503Z,50.21
2019-06-08T08:19:57.299Z,50.14
2019-06-08T08:21:09.169Z,50.42
2019-06-08T08:22:22.137Z,50.94
2019-06-08T08:23:17.384Z,51.33
2019-06-08T08:24:22.226Z,51.47
2019-06-08T08:25:28.169Z,51.23
2019-06-08T08:26:34.562Z,51.02
2019-06-08T08:27:39.361Z,51.34
2019-06-08T08:28:44.246Z,50.92
2019-06-08T08:29:49.944Z,51.38
2019-06-08T08:30:56.164Z,51.23
2019-06-08T08:32:02.134Z,50.76
2019-06-08T08:33:07.850Z,51.29
2019-06-08T08:34:18.297Z,51.73
2019-06-08T08:36:18.026Z,50.10
2019-06-08T08:37:22.468Z,49.19
2019-06-08T08:38:27.269Z,48.84
2019-06-08T08:39:32.639Z,48.86
2019-06-08T08:40:38.789Z,48.01
2019-06-08T08:41:44.412Z,48.33
2019-06-08T08:42:50.538Z,47.79
2019-06-08T08:43:58.418Z,48.15
2019-06-08T08:45:05.141Z,48.79
2019-06-08T08:46:08.525Z,49.06
2019-06-08T08:47:12.948Z,49.92
2019-06-08T08:48:25.254Z,48.76
2019-06-08T08:49:24.062Z,49.94
2019-06-08T08:50:29.112Z,49.87
2019-06-08T08:51:33.620Z,49.31
2019-06-08T08:52:40.955Z,49.19
2019-06-08T08:53:44.945Z,49.78
2019-06-08T08:54:51.327Z,49.23
2019-06-08T08:55:59.679Z,49.80
2019-06-08T08:57:05.112Z,49.43
2019-06-08T08:58:08.948Z,49.21
2019-06-08T08:59:14.250Z,49.21
2019-06-08T09:00:19.503Z,49.05
2019-06-08T09:02:11.374Z,50.10
2019-06-08T09:03:27.827Z,49.50
2019-06-08T09:04:21.078Z,49.03
2019-06-08T09:05:28.123Z,49.56
2019-06-08T09:06:32.646Z,49.19
2019-06-08T09:07:38.536Z,49.14
2019-06-08T09:08:43.157Z,49.52
2019-06-08T09:09:48.390Z,49.57
2019-06-08T09:10:53.422Z,49.40
2019-06-08T09:12:02.221Z,49.47
2019-06-08T09:13:04.850Z,49.69
2019-06-08T09:14:14.120Z,49.87
2019-06-08T09:15:16.053Z,49.83
2019-06-08T09:16:21.439Z,50.54
2019-06-08T09:17:27.881Z,49.74
2019-06-08T09:18:32.581Z,50.37
2019-06-08T09:19:38.217Z,51.44
2019-06-08T09:20:43.814Z,51.82
2019-06-08T09:21:48.374Z,51.84
2019-06-08T09:23:01.706Z,52.74
2019-06-08T09:24:02.595Z,55.14
2019-06-08T09:25:08.753Z,52.15
2019-06-08T09:26:14.349Z,52.40
2019-06-08T09:27:19.638Z,51.06
2019-06-08T09:28:24.499Z,51.74
2019-06-08T09:29:29.500Z,50.19
2019-06-08T09:30:34.187Z,50.39
2019-06-08T09:31:39.440Z,50.82
2019-06-08T09:32:43.867Z,51.43
2019-06-08T09:34:06.736Z,50.43
2019-06-08T09:34:57.170Z,51.44
2019-06-08T09:36:04.524Z,51.40
2019-06-08T09:37:08.631Z,52.21
2019-06-08T09:38:13.714Z,50.98
2019-06-08T09:39:18.763Z,51.36
2019-06-08T09:40:25.916Z,52.03
2019-06-08T09:41:31.282Z,51.04
2019-06-08T09:42:36.659Z,51.37
2019-06-08T09:43:41.148Z,49.27
2019-06-08T09:44:48.289Z,48.82
2019-06-08T09:45:53.816Z,49.08
2019-06-08T09:47:05.662Z,49.94
2019-06-08T09:48:09.231Z,49.41
2019-06-08T09:49:13.428Z,49.80
2019-06-08T09:50:18.698Z,50.12
2019-06-08T09:51:23.835Z,49.58
2019-06-08T09:52:28.380Z,49.77
2019-06-08T09:53:37.589Z,48.50
2019-06-08T09:54:39.593Z,47.79
2019-06-08T09:55:44.977Z,48.17
2019-06-08T09:56:49.705Z,47.78
2019-06-08T09:57:58.964Z,48.29
2019-06-08T09:59:03.836Z,47.88
2019-06-08T10:00:18.029Z,46.53
2019-06-08T10:01:18.432Z,45.00
2019-06-08T10:02:23.400Z,45.09
2019-06-08T10:03:30.753Z,43.91
2019-06-08T10:04:34.654Z,43.61
2019-06-08T10:05:39.079Z,44.15
2019-06-08T10:06:44.506Z,45.06
2019-06-08T10:07:49.095Z,43.87
2019-06-08T10:08:54.354Z,44.24
2019-06-08T10:10:02.246Z,45.41
2019-06-08T10:11:07.322Z,45.29
2019-06-08T10:12:11.949Z,44.95
2019-06-08T10:13:22.853Z,45.33
2019-06-08T10:14:28.200Z,45.38
2019-06-08T10:15:33.823Z,45.93
2019-06-08T10:16:38.553Z,46.76
2019-06-08T10:17:44.648Z,46.73
2019-06-08T10:18:51.498Z,46.68
2019-06-08T10:20:00.243Z,47.46
2019-06-08T10:21:03.455Z,48.21
2019-06-08T10:22:08.758Z,48.29
2019-06-08T10:23:29.911Z,48.78
2019-06-08T10:24:20.281Z,48.60
2019-06-08T10:25:24.701Z,47.99
2019-06-08T10:26:29.693Z,48.01
2019-06-08T10:27:34.453Z,47.78
2019-06-08T10:28:39.738Z,47.88
2019-06-08T10:29:44.143Z,47.74
2019-06-08T10:30:49.224Z,47.32
2019-06-08T10:31:53.707Z,48.23
2019-06-08T10:33:01.815Z,48.27
2019-06-08T10:34:08.491Z,49.15
2019-06-08T10:35:12.351Z,50.88
2019-06-08T10:36:18.324Z,49.49
2019-06-08T10:37:23.348Z,48.77
2019-06-08T10:38:28.946Z,47.78
2019-06-08T10:39:34.059Z,47.60
2019-06-08T10:40:40.257Z,46.91
2019-06-08T10:41:45.309Z,47.29
2019-06-08T10:42:49.799Z,45.51
2019-06-08T10:43:54.897Z,45.12
2019-06-08T10:45:04.098Z,44.96
2019-06-08T10:46:14.032Z,45.52
2019-06-08T10:47:12.482Z,44.73
2019-06-08T10:48:17.998Z,44.77
2019-06-08T10:49:22.818Z,45.46
2019-06-08T10:50:28.993Z,45.93
2019-06-08T10:51:33.443Z,46.17
2019-06-08T10:52:39.112Z,46.96
2019-06-08T10:53:49.101Z,46.87
2019-06-08T10:54:50.767Z,46.92
2019-06-08T10:55:57.846Z,47.18
2019-06-08T10:57:05.067Z,47.49
2019-06-08T10:58:10.915Z,47.23
2019-06-08T10:59:16.271Z,47.53
2019-06-08T11:00:24.148Z,46.88
2019-06-08T11:01:29.534Z,46.76
2019-06-08T11:02:33.998Z,47.08
2019-06-08T11:03:39.139Z,46.69
2019-06-08T11:04:43.725Z,46.39
2019-06-08T11:05:51.298Z,46.85
2019-06-08T11:06:58.304Z,45.82
2019-06-08T11:08:02.965Z,45.68
2019-06-08T11:09:13.336Z,43.67
2019-06-08T11:10:15.917Z,43.77
2019-06-08T11:11:20.681Z,43.83
2019-06-08T11:12:28.140Z,44.91
2019-06-08T11:13:31.918Z,44.30
2019-06-08T11:14:38.243Z,44.00
2019-06-08T11:15:43.088Z,44.20
2019-06-08T11:16:48.098Z,42.38
2019-06-08T11:17:52.568Z,42.34
2019-06-08T11:18:59.071Z,41.79
2019-06-08T11:20:07.369Z,42.50
2019-06-08T11:21:12.901Z,41.91
2019-06-08T11:22:18.035Z,43.15
2019-06-08T11:23:23.252Z,41.90
2019-06-08T11:24:28.943Z,40.77
2019-06-08T11:25:34.212Z,39.78
2019-06-08T11:26:40.377Z,40.02
2019-06-08T11:27:47.522Z,40.14
2019-06-08T11:28:51.754Z,38.46
2019-06-08T11:29:57.545Z,38.65
2019-06-08T11:31:02.091Z,38.70
2019-06-08T11:32:10.921Z,38.96
2019-06-08T11:33:13.410Z,37.46
2019-06-08T11:34:21.573Z,39.90
2019-06-08T11:35:24.601Z,38.71
2019-06-08T11:36:29.712Z,38.35
2019-06-08T11:37:34.169Z,38.60
2019-06-08T11:38:39.373Z,39.95
2019-06-08T11:39:44.793Z,39.95
2019-06-08T11:40:49.835Z,39.82
2019-06-08T11:41:54.496Z,40.23
2019-06-08T11:43:00.412Z,39.89
2019-06-08T11:44:07.133Z,41.53
2019-06-08T11:45:13.279Z,38.52
2019-06-08T11:46:21.350Z,40.35
2019-06-08T11:47:24.740Z,40.25
2019-06-08T11:48:29.166Z,41.49
2019-06-08T11:49:34.185Z,39.97
2019-06-08T11:50:42.065Z,39.11
2019-06-08T11:51:47.853Z,39.54
2019-06-08T11:52:52.599Z,39.90
2019-06-08T11:53:59.379Z,37.96
2019-06-08T11:55:05.415Z,38.35
2019-06-08T11:56:13.313Z,37.55
2019-06-08T11:57:17.767Z,36.54
2019-06-08T11:58:24.801Z,36.44
2019-06-08T11:59:30.348Z,36.83
2019-06-08T12:01:04.625Z,37.28
2019-06-08T12:02:10.505Z,37.46
2019-06-08T12:03:14.742Z,36.00
2019-06-08T12:04:20.142Z,34.86
2019-06-08T12:05:27.758Z,33.69
2019-06-08T12:06:31.547Z,33.84
2019-06-08T12:07:38.205Z,34.12
2019-06-08T12:08:42.657Z,34.44
2019-06-08T12:09:50.143Z,34.48
2019-06-08T12:10:54.224Z,36.54
2019-06-08T12:11:59.224Z,35.71
2019-06-08T12:13:04.708Z,36.86
2019-06-08T12:14:11.435Z,36.21
2019-06-08T12:15:18.149Z,38.19
2019-06-08T12:16:22.652Z,34.67
2019-06-08T12:17:27.625Z,34.98
2019-06-08T12:18:32.646Z,34.39
2019-06-08T12:19:37.854Z,33.96
2019-06-08T12:20:42.940Z,34.20
2019-06-08T12:21:49.598Z,34.90
2019-06-08T12:22:54.125Z,35.15
2019-06-08T12:23:58.537Z,34.45
2019-06-08T12:25:03.873Z,33.54
2019-06-08T12:26:10.212Z,33.13
2019-06-08T12:27:26.898Z,33.58
2019-06-08T12:28:21.320Z,34.21
2019-06-08T12:29:28.409Z,34.23
2019-06-08T12:30:32.545Z,34.32
2019-06-08T12:31:37.871Z,33.92
2019-06-08T12:32:43.482Z,33.51
2019-06-08T12:33:48.884Z,33.50
2019-06-08T12:34:53.678Z,33.92
2019-06-08T12:35:59.062Z,32.05
2019-06-08T12:37:03.474Z,33.00
2019-06-08T12:38:09.991Z,32.66
2019-06-08T12:39:14.742Z,32.73
2019-06-08T12:40:20.919Z,33.18
2019-06-08T12:41:28.881Z,32.51
2019-06-08T12:42:37.996Z,33.07
2019-06-08T12:43:43.052Z,32.67
2019-06-08T12:44:49.502Z,33.12
2019-06-08T12:45:55.347Z,34.36
2019-06-08T12:47:00.971Z,32.84
2019-06-08T12:48:09.840Z,33.10
2019-06-08T12:49:15.760Z,33.45
2019-06-08T12:50:21.443Z,32.19
2019-06-08T12:51:28.201Z,31.90
2019-06-08T12:52:33.633Z,31.87
2019-06-08T12:53:40.183Z,31.21
2019-06-08T12:54:59.211Z,31.98
2019-06-08T12:55:53.130Z,31.65
2019-06-08T12:57:00.843Z,30.33
2019-06-08T12:58:09.371Z,30.19
2019-06-08T12:59:16.531Z,30.19
2019-06-08T13:00:24.872Z,29.91
2019-06-08T13:01:30.239Z,29.57
2019-06-08T13:02:38.260Z,29.45
2019-06-08T13:03:43.312Z,28.55
2019-06-08T13:04:48.851Z,29.30
2019-06-08T13:05:53.287Z,30.59
2019-06-08T13:06:58.477Z,28.99
2019-06-08T13:08:02.892Z,29.35
2019-06-08T13:09:10.060Z,29.41
2019-06-08T13:10:15.297Z,28.14
2019-06-08T13:11:21.241Z,29.07
2019-06-08T13:12:25.825Z,28.50
2019-06-08T13:13:30.838Z,28.18
2019-06-08T13:14:35.440Z,29.27
2019-06-08T13:15:40.727Z,29.91
2019-06-08T13:16:48.525Z,29.68
2019-06-08T13:17:52.881Z,29.65
2019-06-08T13:18:58.701Z,29.78
2019-06-08T13:20:04.504Z,30.86
2019-06-08T13:21:21.859Z,30.61
2019-06-08T13:22:16.916Z,31.65
2019-06-08T13:23:22.122Z,31.29
2019-06-08T13:24:28.546Z,30.95
2019-06-08T13:25:40.351Z,29.57
2019-06-08T13:26:40.167Z,29.06
2019-06-08T13:27:44.731Z,27.82
2019-06-08T13:28:49.773Z,27.28
2019-06-08T13:29:57.793Z,27.90
2019-06-08T13:31:02.945Z,28.16
2019-06-08T13:32:07.943Z,28.24
2019-06-08T13:33:14.051Z,28.06
2019-06-08T13:34:22.129Z,25.79
2019-06-08T13:35:27.401Z,26.29
2019-06-08T13:36:31.491Z,26.47
2019-06-08T13:37:38.888Z,26.96
2019-06-08T13:38:42.676Z,27.71
2019-06-08T13:39:47.735Z,27.85
2019-06-08T13:40:52.369Z,26.97
2019-06-08T13:41:57.403Z,28.04
2019-06-08T13:43:01.890Z,27.92
2019-06-08T13:44:08.271Z,26.89
2019-06-08T13:45:16.251Z,26.82
2019-06-08T13:46:23.534Z,27.86
2019-06-08T13:47:28.375Z,29.51
2019-06-08T13:48:33.412Z,28.46
2019-06-08T13:49:37.910Z,27.27
2019-06-08T13:50:43.219Z,27.51
2019-06-08T13:51:47.935Z,26.67
2019-06-08T13:52:55.476Z,26.13
2019-06-08T13:54:00.198Z,25.76
2019-06-08T13:55:07.607Z,27.49
2019-06-08T13:56:12.799Z,26.68
2019-06-08T13:57:20.623Z,28.06
2019-06-08T13:58:32.675Z,26.70
2019-06-08T13:59:32.287Z,27.20
2019-06-08T14:00:38.453Z,25.72
2019-06-08T14:01:43.881Z,25.90
2019-06-08T14:02:51.231Z,25.86
2019-06-08T14:03:58.170Z,26.15
2019-06-08T14:05:02.839Z,26.23